Banksville, New York
Current Conditions -  °F | °C
As of 5:56 PM on Monday 22 Dec 2014 (Local Time) from KHPN Reporting Station
Overcast Overcast  
Wind Chill:   Ceiling: 1200
Heat Index:   Visibility: 10mi
Dew Point:   Wind: 8mph
Humidity: 89%   Direction: 90°E
Pressure: 30.21"   Gusts: NA
Location:  41.191°N, 73.6333°W
Report Text: KHPN 222256Z 09007KT 10SM OVC012 06/04 A3021 RMK AO2 SLP236 T00560039
Loading
Personal Weather Stations






























Interactive Weather Map New forecast layout! Learn more

10-Day Weather Forecast

Advertisements
Track Severe Weather on mobile